createdAt,value
2016-08-03T00:00:26.620Z,17.06
2016-08-03T00:01:26.949Z,17.15
2016-08-03T00:02:27.582Z,17.22
2016-08-03T00:03:26.172Z,17.08
2016-08-03T00:04:27.452Z,17.2
2016-08-03T00:05:27.206Z,17.14
2016-08-03T00:06:26.683Z,17.14
2016-08-03T00:07:27.745Z,17.05
2016-08-03T00:08:26.309Z,17.12
2016-08-03T00:09:27.455Z,17.15
2016-08-03T00:10:26.995Z,17.09
2016-08-03T00:11:26.244Z,17.15
2016-08-03T00:12:27.137Z,17.12
2016-08-03T00:13:26.608Z,17.09
2016-08-03T00:14:27.321Z,17.08
2016-08-03T00:15:26.918Z,17.15
2016-08-03T00:16:26.735Z,17.12
2016-08-03T00:17:26.846Z,17.12
2016-08-03T00:18:27.247Z,17.12
2016-08-03T00:19:28.408Z,17.12
2016-08-03T00:20:26.821Z,17.04
2016-08-03T00:21:28.226Z,17.11
2016-08-03T00:22:28.095Z,17.09
2016-08-03T00:23:28.032Z,17.12
2016-08-03T00:24:27.204Z,17.11
2016-08-03T00:25:26.794Z,17.19
2016-08-03T00:26:28.373Z,17.11
2016-08-03T00:27:27.584Z,17.12
2016-08-03T00:28:28.158Z,17.06
2016-08-03T00:29:29.047Z,17.09
2016-08-03T00:30:27.347Z,17.05
2016-08-03T00:31:27.647Z,17.11
2016-08-03T00:32:27.309Z,17.14
2016-08-03T00:33:26.637Z,17.11
2016-08-03T00:34:29.025Z,17.14
2016-08-03T00:35:27.671Z,17.11
2016-08-03T00:36:27.618Z,17.12
2016-08-03T00:37:27.647Z,17.15
2016-08-03T00:38:27.071Z,17.08
2016-08-03T00:39:26.902Z,17.09
2016-08-03T00:40:28.110Z,17.09
2016-08-03T00:41:28.084Z,17.09
2016-08-03T00:42:26.966Z,17.19
2016-08-03T00:43:28.346Z,17.08
2016-08-03T00:44:28.063Z,17.15
2016-08-03T00:45:27.611Z,17.11
2016-08-03T00:46:27.024Z,17.16
2016-08-03T00:47:28.696Z,17.12
2016-08-03T00:48:28.887Z,17.15
2016-08-03T00:49:28.815Z,17.19
2016-08-03T00:50:29.636Z,17.14
2016-08-03T00:51:27.269Z,17.14
2016-08-03T00:52:28.170Z,17.14
2016-08-03T00:53:28.643Z,17.09
2016-08-03T00:54:27.883Z,17.04
2016-08-03T00:55:27.243Z,17.11
2016-08-03T00:56:27.414Z,17.15
2016-08-03T00:57:28.806Z,17.08
2016-08-03T00:58:28.431Z,17.11
2016-08-03T00:59:29.115Z,17.12
2016-08-03T01:00:29.255Z,17.09
2016-08-03T01:01:27.655Z,17.08
2016-08-03T01:02:28.326Z,17.09
2016-08-03T01:03:28.760Z,17.08
2016-08-03T01:04:28.867Z,17.05
2016-08-03T01:05:27.682Z,17.05
2016-08-03T01:06:28.482Z,17.06
2016-08-03T01:07:27.736Z,16.97
2016-08-03T01:08:27.621Z,17.11
2016-08-03T01:09:28.924Z,16.96
2016-08-03T01:10:28.351Z,17.11
2016-08-03T01:11:27.722Z,17.09
2016-08-03T01:12:28.864Z,17.01
2016-08-03T01:13:28.444Z,17.01
2016-08-03T01:14:29.083Z,17.04
2016-08-03T01:15:27.632Z,17.09
2016-08-03T01:16:28.348Z,17.11
2016-08-03T01:17:28.428Z,17.19
2016-08-03T01:18:29.654Z,17.02
2016-08-03T01:19:28.260Z,17.09
2016-08-03T01:20:29.267Z,17.08
2016-08-03T01:21:29.594Z,17.08
2016-08-03T01:22:30.054Z,16.99
2016-08-03T01:23:28.827Z,16.99
2016-08-03T01:24:28.116Z,17.06
2016-08-03T01:25:28.091Z,17.05
2016-08-03T01:26:29.451Z,16.94
2016-08-03T01:27:29.201Z,16.97
2016-08-03T01:28:28.453Z,17.04
2016-08-03T01:29:28.127Z,16.94
2016-08-03T01:30:30.366Z,17.01
2016-08-03T01:31:29.162Z,17.04
2016-08-03T01:32:29.917Z,17.04
2016-08-03T01:33:30.049Z,16.96
2016-08-03T01:34:30.474Z,16.96
2016-08-03T01:35:28.473Z,16.94
2016-08-03T01:36:29.220Z,17.05
2016-08-03T01:37:29.693Z,16.97
2016-08-03T01:38:29.464Z,16.96
2016-08-03T01:39:29.699Z,17.01
2016-08-03T01:40:28.330Z,16.96
2016-08-03T01:41:29.087Z,16.94
2016-08-03T01:42:29.107Z,17.01
2016-08-03T01:43:28.980Z,17.02
2016-08-03T01:44:30.676Z,16.97
2016-08-03T01:45:29.399Z,17.02
2016-08-03T01:46:29.021Z,16.96
2016-08-03T01:47:29.642Z,16.96
2016-08-03T01:48:28.786Z,16.94
2016-08-03T01:49:29.600Z,16.97
2016-08-03T01:50:30.122Z,16.9
2016-08-03T01:51:29.324Z,16.99
2016-08-03T01:52:29.543Z,16.97
2016-08-03T01:53:29.941Z,16.94
2016-08-03T01:54:30.065Z,17.06
2016-08-03T01:55:29.832Z,16.99
2016-08-03T01:56:30.086Z,16.96
2016-08-03T01:57:29.907Z,16.96
2016-08-03T01:58:29.540Z,16.96
2016-08-03T01:59:29.435Z,16.93
2016-08-03T02:00:29.454Z,16.99
2016-08-03T02:01:29.716Z,16.96
2016-08-03T02:02:30.232Z,16.91
2016-08-03T02:03:30.212Z,16.97
2016-08-03T02:04:29.608Z,16.93
2016-08-03T02:05:29.567Z,16.91
2016-08-03T02:06:29.737Z,17.04
2016-08-03T02:07:29.761Z,17.04
2016-08-03T02:08:29.818Z,17.02
2016-08-03T02:09:29.359Z,16.99
2016-08-03T02:10:30.225Z,16.97
2016-08-03T02:11:29.254Z,16.94
2016-08-03T02:12:29.710Z,16.94
2016-08-03T02:13:29.150Z,16.99
2016-08-03T02:14:30.148Z,17.01
2016-08-03T02:15:30.664Z,16.96
2016-08-03T02:16:29.141Z,16.94
2016-08-03T02:17:29.822Z,16.96
2016-08-03T02:18:31.654Z,17.06
2016-08-03T02:19:30.096Z,17.01
2016-08-03T02:20:32.277Z,17.05
2016-08-03T02:21:30.883Z,16.96
2016-08-03T02:22:30.561Z,16.96
2016-08-03T02:23:30.476Z,16.94
2016-08-03T02:24:30.787Z,16.96
2016-08-03T02:25:30.030Z,16.99
2016-08-03T02:26:31.759Z,16.96
2016-08-03T02:27:30.547Z,16.9
2016-08-03T02:28:30.265Z,17.02
2016-08-03T02:29:29.494Z,16.96
2016-08-03T02:30:29.982Z,16.97
2016-08-03T02:31:30.122Z,16.97
2016-08-03T02:32:30.131Z,16.99
2016-08-03T02:33:30.609Z,16.96
2016-08-03T02:34:30.117Z,16.96
2016-08-03T02:35:30.134Z,16.97
2016-08-03T02:36:30.835Z,16.97
2016-08-03T02:37:31.658Z,16.94
2016-08-03T02:38:30.887Z,17.01
2016-08-03T02:39:30.387Z,16.99
2016-08-03T02:40:31.406Z,16.94
2016-08-03T02:41:30.472Z,16.94
2016-08-03T02:42:30.568Z,16.96
2016-08-03T02:43:32.187Z,16.9
2016-08-03T02:44:31.862Z,16.94
2016-08-03T02:45:30.738Z,16.96
2016-08-03T02:46:29.768Z,16.94
2016-08-03T02:47:30.547Z,16.9
2016-08-03T02:48:30.076Z,16.96
2016-08-03T02:49:31.435Z,17.02
2016-08-03T02:50:30.970Z,17.06
2016-08-03T02:51:30.164Z,16.97
2016-08-03T02:52:31.803Z,16.94
2016-08-03T02:53:31.286Z,16.87
2016-08-03T02:54:31.119Z,16.99
2016-08-03T02:55:31.755Z,16.89
2016-08-03T02:56:31.269Z,16.91
2016-08-03T02:57:30.300Z,17.01
2016-08-03T02:58:30.188Z,16.94
2016-08-03T02:59:31.969Z,16.97
2016-08-03T03:00:32.217Z,17.01
2016-08-03T03:01:31.243Z,16.99
2016-08-03T03:02:30.707Z,16.96
2016-08-03T03:03:31.289Z,16.96
2016-08-03T03:04:31.443Z,16.97
2016-08-03T03:05:30.630Z,16.94
2016-08-03T03:06:30.576Z,16.89
2016-08-03T03:07:30.848Z,16.94
2016-08-03T03:08:31.613Z,16.96
2016-08-03T03:09:30.570Z,17.01
2016-08-03T03:10:31.375Z,16.96
2016-08-03T03:11:30.395Z,16.96
2016-08-03T03:12:32.714Z,17.02
2016-08-03T03:13:31.613Z,16.97
2016-08-03T03:14:31.737Z,16.99
2016-08-03T03:15:32.112Z,16.99
2016-08-03T03:16:32.821Z,17.02
2016-08-03T03:17:30.986Z,16.93
2016-08-03T03:18:31.208Z,16.99
2016-08-03T03:19:32.076Z,17.05
2016-08-03T03:20:30.727Z,17.11
2016-08-03T03:21:32.957Z,16.94
2016-08-03T03:22:32.076Z,16.99
2016-08-03T03:23:34.013Z,17.04
2016-08-03T03:24:31.928Z,16.96
2016-08-03T03:25:33.014Z,16.96
2016-08-03T03:26:32.685Z,17.08
2016-08-03T03:27:31.345Z,17.06
2016-08-03T03:28:31.168Z,16.99
2016-08-03T03:29:32.956Z,17.04
2016-08-03T03:30:32.326Z,17.06
2016-08-03T03:31:32.334Z,16.96
2016-08-03T03:32:31.369Z,17.05
2016-08-03T03:33:31.792Z,17.06
2016-08-03T03:34:32.133Z,17.05
2016-08-03T03:35:32.050Z,17.06
2016-08-03T03:36:32.290Z,17.14
2016-08-03T03:37:31.047Z,17.12
2016-08-03T03:38:32.572Z,17.11
2016-08-03T03:39:31.583Z,17.08
2016-08-03T03:40:35.310Z,17.11
2016-08-03T03:41:33.026Z,17.15
2016-08-03T03:42:32.492Z,17.08
2016-08-03T03:43:31.517Z,17.14
2016-08-03T03:45:31.938Z,17.14
2016-08-03T03:46:32.590Z,17.04
2016-08-03T03:47:32.289Z,17.09
2016-08-03T03:48:31.905Z,17.06
2016-08-03T03:49:31.807Z,17.09
2016-08-03T03:50:32.549Z,17.05
2016-08-03T03:51:32.276Z,17.09
2016-08-03T03:52:32.177Z,17.08
2016-08-03T03:53:33.931Z,17.11
2016-08-03T03:54:32.295Z,17.09
2016-08-03T03:55:31.703Z,17.06
2016-08-03T03:56:32.077Z,17.09
2016-08-03T03:57:32.614Z,17.14
2016-08-03T03:58:33.438Z,17.06
2016-08-03T04:00:32.642Z,17.12
2016-08-03T04:01:34.007Z,17.08
2016-08-03T04:02:31.841Z,17.14
2016-08-03T04:03:31.830Z,17.04
2016-08-03T04:04:32.021Z,17.06
2016-08-03T04:05:32.127Z,17.12
2016-08-03T04:06:33.005Z,17.2
2016-08-03T04:07:33.278Z,17.12
2016-08-03T04:08:33.081Z,17.11
2016-08-03T04:09:32.899Z,17.19
2016-08-03T04:10:32.139Z,17.19
2016-08-03T04:11:33.286Z,17.23
2016-08-03T04:12:31.949Z,17.27
2016-08-03T04:13:32.605Z,17.33
2016-08-03T04:15:33.900Z,17.3
2016-08-03T04:16:32.470Z,17.22
2016-08-03T04:17:32.278Z,17.3
2016-08-03T04:18:33.233Z,17.22
2016-08-03T04:19:32.550Z,17.27
2016-08-03T04:20:32.194Z,17.26
2016-08-03T04:21:32.660Z,17.23
2016-08-03T04:22:34.594Z,17.31
2016-08-03T04:23:34.791Z,17.22
2016-08-03T04:24:32.933Z,17.23
2016-08-03T04:25:34.866Z,17.26
2016-08-03T04:26:34.289Z,17.23
2016-08-03T04:27:33.182Z,17.22
2016-08-03T04:28:34.503Z,17.26
2016-08-03T04:30:32.521Z,17.23
2016-08-03T04:31:32.949Z,17.29
2016-08-03T04:32:32.999Z,17.29
2016-08-03T04:33:33.589Z,17.29
2016-08-03T04:34:34.599Z,17.27
2016-08-03T04:35:32.802Z,17.33
2016-08-03T04:36:34.255Z,17.38
2016-08-03T04:37:32.792Z,17.34
2016-08-03T04:38:33.415Z,17.33
2016-08-03T04:39:32.533Z,17.36
2016-08-03T04:40:32.758Z,17.38
2016-08-03T04:41:33.236Z,17.36
2016-08-03T04:42:33.467Z,17.42
2016-08-03T04:43:33.551Z,17.44
2016-08-03T04:45:34.897Z,17.31
2016-08-03T04:46:32.981Z,17.3
2016-08-03T04:47:35.438Z,17.34
2016-08-03T04:48:35.192Z,17.39
2016-08-03T04:49:33.112Z,17.39
2016-08-03T04:50:34.344Z,17.39
2016-08-03T04:51:34.240Z,17.36
2016-08-03T04:52:33.453Z,17.45
2016-08-03T04:53:34.218Z,17.49
2016-08-03T04:54:33.846Z,17.48
2016-08-03T04:55:34.256Z,17.44
2016-08-03T04:56:35.419Z,17.49
2016-08-03T04:57:34.321Z,17.48
2016-08-03T04:58:34.401Z,17.49
2016-08-03T04:59:34.357Z,17.56
2016-08-03T05:00:34.374Z,17.45
2016-08-03T05:01:34.330Z,17.48
2016-08-03T05:02:33.328Z,17.59
2016-08-03T05:03:34.204Z,17.52
2016-08-03T05:04:34.795Z,17.48
2016-08-03T05:05:35.946Z,17.54
2016-08-03T05:06:34.462Z,17.49
2016-08-03T05:07:34.412Z,17.46
2016-08-03T05:08:34.324Z,17.45
2016-08-03T05:09:34.657Z,17.49
2016-08-03T05:10:34.300Z,17.51
2016-08-03T05:11:34.974Z,17.51
2016-08-03T05:12:34.667Z,17.41
2016-08-03T05:13:34.388Z,17.51
2016-08-03T05:14:35.565Z,17.59
2016-08-03T05:15:34.263Z,17.46
2016-08-03T05:16:35.002Z,17.51
2016-08-03T05:17:34.560Z,17.57
2016-08-03T05:18:36.548Z,17.51
2016-08-03T05:19:35.426Z,17.57
2016-08-03T05:20:34.680Z,17.52
2016-08-03T05:21:34.884Z,17.67
2016-08-03T05:22:36.253Z,17.57
2016-08-03T05:23:35.457Z,17.46
2016-08-03T05:24:35.247Z,17.48
2016-08-03T05:25:35.663Z,17.59
2016-08-03T05:26:35.980Z,17.6
2016-08-03T05:27:35.202Z,17.46
2016-08-03T05:28:35.432Z,17.59
2016-08-03T05:29:35.273Z,17.52
2016-08-03T05:30:34.122Z,17.56
2016-08-03T05:31:35.440Z,17.48
2016-08-03T05:32:35.060Z,17.49
2016-08-03T05:33:34.040Z,17.6
2016-08-03T05:34:34.138Z,17.64
2016-08-03T05:35:35.671Z,17.56
2016-08-03T05:36:36.158Z,17.51
2016-08-03T05:37:35.275Z,17.49
2016-08-03T05:38:34.909Z,17.52
2016-08-03T05:39:33.979Z,17.65
2016-08-03T05:40:34.230Z,17.54
2016-08-03T05:41:35.063Z,17.51
2016-08-03T05:42:34.667Z,17.64
2016-08-03T05:43:34.415Z,17.52
2016-08-03T05:44:35.494Z,17.59
2016-08-03T05:45:34.615Z,17.6
2016-08-03T05:46:35.658Z,17.54
2016-08-03T05:47:34.666Z,17.57
2016-08-03T05:48:34.666Z,17.64
2016-08-03T05:49:35.344Z,17.67
2016-08-03T05:50:36.550Z,17.68
2016-08-03T05:51:34.686Z,17.65
2016-08-03T05:52:34.850Z,17.63
2016-08-03T05:53:34.887Z,17.57
2016-08-03T05:54:34.944Z,17.72
2016-08-03T05:55:35.345Z,17.63
2016-08-03T05:56:35.773Z,17.74
2016-08-03T05:57:35.739Z,17.71
2016-08-03T05:58:35.504Z,17.7
2016-08-03T05:59:34.886Z,17.68
2016-08-03T06:00:36.291Z,17.64
2016-08-03T06:01:35.249Z,17.67
2016-08-03T06:02:35.068Z,17.67
2016-08-03T06:03:34.284Z,17.83
2016-08-03T06:04:35.058Z,17.7
2016-08-03T06:05:35.259Z,17.8
2016-08-03T06:06:35.192Z,17.71
2016-08-03T06:07:35.246Z,17.76
2016-08-03T06:08:34.766Z,17.74
2016-08-03T06:09:34.700Z,17.85
2016-08-03T06:10:34.962Z,17.79
2016-08-03T06:11:35.340Z,17.78
2016-08-03T06:12:35.346Z,17.85
2016-08-03T06:13:37.031Z,17.85
2016-08-03T06:14:50.309Z,17.79
2016-08-03T06:15:50.522Z,17.82
2016-08-03T06:16:49.822Z,17.86
2016-08-03T06:17:49.593Z,17.85
2016-08-03T06:18:50.318Z,17.86
2016-08-03T06:19:49.843Z,17.83
2016-08-03T06:20:49.870Z,17.82
2016-08-03T06:21:50.372Z,17.83
2016-08-03T06:22:50.447Z,17.87
2016-08-03T06:23:50.253Z,17.86
2016-08-03T06:24:50.314Z,17.9
2016-08-03T06:25:50.374Z,17.98
2016-08-03T06:26:51.068Z,18
2016-08-03T06:27:50.494Z,18
2016-08-03T06:28:50.336Z,18.07
2016-08-03T06:29:50.314Z,18.15
2016-08-03T06:30:51.094Z,18.15
2016-08-03T06:31:50.314Z,18.05
2016-08-03T06:32:50.458Z,18.11
2016-08-03T06:33:51.005Z,18.23
2016-08-03T06:34:50.408Z,18.08
2016-08-03T06:35:50.844Z,18.11
2016-08-03T06:36:36.841Z,18.25
2016-08-03T06:49:37.153Z,18.45
2016-08-03T06:50:36.034Z,18.59
2016-08-03T06:51:36.821Z,18.63
2016-08-03T06:52:36.719Z,18.77
2016-08-03T06:53:35.856Z,18.63
2016-08-03T06:54:37.454Z,18.66
2016-08-03T06:55:36.591Z,18.66
2016-08-03T06:56:36.615Z,18.74
2016-08-03T06:57:38.682Z,18.81
2016-08-03T06:58:36.591Z,18.77
2016-08-03T06:59:36.391Z,18.77
2016-08-03T07:00:37.267Z,18.77
2016-08-03T07:01:37.122Z,18.88
2016-08-03T07:02:37.661Z,18.9
2016-08-03T07:03:36.823Z,18.92
2016-08-03T07:04:36.876Z,18.93
2016-08-03T07:05:37.430Z,18.96
2016-08-03T07:06:36.838Z,18.99
2016-08-03T07:07:37.845Z,18.99
2016-08-03T07:08:38.435Z,18.99
2016-08-03T07:09:37.621Z,18.96
2016-08-03T07:10:37.092Z,18.9
2016-08-03T07:11:36.591Z,18.99
2016-08-03T07:12:36.546Z,18.95
2016-08-03T07:13:37.955Z,18.89
2016-08-03T07:14:37.358Z,18.98
2016-08-03T07:15:37.155Z,18.99
2016-08-03T07:16:37.902Z,19.12
2016-08-03T07:17:38.120Z,19.19
2016-08-03T07:18:37.359Z,19.16
2016-08-03T07:19:36.815Z,19.21
2016-08-03T07:20:37.350Z,19.33
2016-08-03T07:21:38.352Z,19.39
2016-08-03T07:22:37.044Z,19.29
2016-08-03T07:23:37.937Z,19.29
2016-08-03T07:24:37.434Z,19.3
2016-08-03T07:25:38.792Z,19.33
2016-08-03T07:26:37.830Z,19.44
2016-08-03T07:27:39.227Z,19.39
2016-08-03T07:28:36.945Z,19.44
2016-08-03T07:29:38.213Z,19.48
2016-08-03T07:30:38.361Z,19.54
2016-08-03T07:31:36.925Z,19.49
2016-08-03T07:32:37.173Z,19.49
2016-08-03T07:33:37.236Z,19.39
2016-08-03T07:34:38.249Z,19.3
2016-08-03T07:35:38.308Z,19.52
2016-08-03T07:36:36.852Z,19.55
2016-08-03T07:37:37.474Z,19.69
2016-08-03T07:38:37.818Z,19.86
2016-08-03T07:39:38.785Z,19.58
2016-08-03T07:40:37.455Z,19.66
2016-08-03T07:41:37.760Z,19.56
2016-08-03T07:42:38.991Z,19.54
2016-08-03T07:43:37.852Z,19.71
2016-08-03T07:44:38.356Z,19.73
2016-08-03T07:45:38.026Z,19.59
2016-08-03T07:46:38.488Z,19.56
2016-08-03T07:47:39.470Z,19.54
2016-08-03T07:48:38.998Z,19.63
2016-08-03T07:49:39.419Z,19.63
2016-08-03T07:50:38.124Z,19.55
2016-08-03T07:51:38.783Z,19.63
2016-08-03T07:52:38.277Z,19.63
2016-08-03T07:53:38.403Z,19.63
2016-08-03T07:54:37.538Z,19.54
2016-08-03T07:55:38.124Z,19.58
2016-08-03T07:56:39.085Z,19.63
2016-08-03T07:57:39.522Z,19.76
2016-08-03T07:58:39.595Z,19.71
2016-08-03T07:59:39.132Z,19.69
2016-08-03T08:01:39.624Z,19.94
2016-08-03T08:02:38.950Z,19.85
2016-08-03T08:03:38.231Z,19.82
2016-08-03T08:04:40.416Z,19.74
2016-08-03T08:05:39.030Z,19.74
2016-08-03T08:06:38.526Z,19.71
2016-08-03T08:07:39.171Z,19.84
2016-08-03T08:08:38.948Z,19.84
2016-08-03T08:09:38.587Z,19.84
2016-08-03T08:10:38.406Z,19.81
2016-08-03T08:11:40.307Z,20
2016-08-03T08:12:38.553Z,20.13
2016-08-03T08:13:38.785Z,19.99
2016-08-03T08:14:38.957Z,19.89
2016-08-03T08:16:39.410Z,20.1
2016-08-03T08:17:39.454Z,20.16
2016-08-03T08:18:39.180Z,20.31
2016-08-03T08:19:40.834Z,20.11
2016-08-03T08:20:40.686Z,19.99
2016-08-03T08:21:39.395Z,19.77
2016-08-03T08:22:40.392Z,20
2016-08-03T08:23:39.371Z,19.84
2016-08-03T08:24:40.858Z,19.89
2016-08-03T08:25:54.232Z,19.77
2016-08-03T08:26:53.918Z,19.77
2016-08-03T08:27:53.860Z,19.74
2016-08-03T08:28:53.334Z,20
2016-08-03T08:29:40.386Z,20.07
2016-08-03T08:31:39.848Z,20.13
2016-08-03T08:32:39.780Z,20.14
2016-08-03T08:33:39.722Z,20.11
2016-08-03T08:34:39.659Z,19.96
2016-08-03T08:35:41.186Z,19.96
2016-08-03T08:36:41.096Z,20.06
2016-08-03T08:37:50.783Z,20.13
2016-08-03T08:38:50.911Z,20
2016-08-03T08:39:54.807Z,19.84
2016-08-03T08:40:53.914Z,19.79
2016-08-03T08:41:52.779Z,19.89
2016-08-03T08:42:47.213Z,19.88
2016-08-03T08:43:46.926Z,19.74
2016-08-03T08:44:53.888Z,19.86
2016-08-03T08:46:50.998Z,19.85
2016-08-03T08:47:47.676Z,19.85
2016-08-03T08:48:51.001Z,19.84
2016-08-03T08:49:51.235Z,19.88
2016-08-03T08:50:51.463Z,20.02
2016-08-03T08:51:54.437Z,20.02
2016-08-03T08:52:51.446Z,19.91
2016-08-03T08:53:51.039Z,20.16
2016-08-03T08:54:54.238Z,20.11
2016-08-03T08:55:54.066Z,20.09
2016-08-03T08:56:52.259Z,20.14
2016-08-03T08:57:54.534Z,19.95
2016-08-03T08:58:51.542Z,20.13
2016-08-03T08:59:51.633Z,20.26
2016-08-03T09:01:53.225Z,20.37
2016-08-03T09:02:51.334Z,20.24
2016-08-03T09:03:51.421Z,20.24
2016-08-03T09:04:51.177Z,20.19
2016-08-03T09:05:52.829Z,20.14
2016-08-03T09:06:39.841Z,20.43
2016-08-03T09:07:56.417Z,20.52
2016-08-03T09:08:48.390Z,20.43
2016-08-03T09:09:50.539Z,20.37
2016-08-03T09:10:46.967Z,20.29
2016-08-03T09:11:51.353Z,20.16
2016-08-03T09:12:40.326Z,20.4
2016-08-03T09:13:55.533Z,20.4
2016-08-03T09:14:54.908Z,20.55
2016-08-03T09:16:55.472Z,20.52
2016-08-03T09:17:41.297Z,20.65
2016-08-03T09:18:52.719Z,20.56
2016-08-03T09:19:41.793Z,20.85
2016-08-03T09:20:42.238Z,20.74
2016-08-03T09:21:40.763Z,20.78
2016-08-03T09:22:40.405Z,20.6
2016-08-03T09:23:41.822Z,20.7
2016-08-03T09:24:41.441Z,21.07
2016-08-03T09:25:42.451Z,21.35
2016-08-03T09:26:41.882Z,21.35
2016-08-03T09:27:41.596Z,21.45
2016-08-03T09:28:41.522Z,21.29
2016-08-03T09:29:41.915Z,21.33
2016-08-03T09:30:43.775Z,21.57
2016-08-03T09:31:41.288Z,21.64
2016-08-03T09:32:41.917Z,21.52
2016-08-03T09:33:41.699Z,21.29
2016-08-03T09:34:42.510Z,21.35
2016-08-03T09:35:43.653Z,21.46
2016-08-03T09:36:44.257Z,21.77
2016-08-03T09:37:41.455Z,22.04
2016-08-03T09:38:41.650Z,22.29
2016-08-03T09:39:41.630Z,21.91
2016-08-03T09:40:42.080Z,22.18
2016-08-03T09:41:42.277Z,22.11
2016-08-03T09:42:41.953Z,22.54
2016-08-03T09:43:41.667Z,22.47
2016-08-03T09:44:42.547Z,22.59
2016-08-03T09:45:43.003Z,22.69
2016-08-03T09:46:41.892Z,22.14
2016-08-03T09:47:42.680Z,22.43
2016-08-03T09:48:42.082Z,22.6
2016-08-03T09:49:43.685Z,22.59
2016-08-03T09:50:42.219Z,22.39
2016-08-03T09:51:44.813Z,22.73
2016-08-03T09:52:42.462Z,22.23
2016-08-03T09:53:42.829Z,22.43
2016-08-03T09:54:43.149Z,22.41
2016-08-03T09:55:42.113Z,22.2
2016-08-03T09:56:45.088Z,22.81
2016-08-03T09:57:42.071Z,22.54
2016-08-03T09:58:43.120Z,22.93
2016-08-03T09:59:43.875Z,22.73
2016-08-03T10:00:42.293Z,23.02
2016-08-03T10:01:42.826Z,22.69
2016-08-03T10:02:41.811Z,22.59
2016-08-03T10:03:44.836Z,22.69
2016-08-03T10:04:41.983Z,23.02
2016-08-03T10:05:41.978Z,22.9
2016-08-03T10:06:43.353Z,23.36
2016-08-03T10:07:42.632Z,23.95
2016-08-03T10:08:43.337Z,23.71
2016-08-03T10:09:43.350Z,23.51
2016-08-03T10:10:45.222Z,23.87
2016-08-03T10:11:43.368Z,23.74
2016-08-03T10:12:43.152Z,24.74
2016-08-03T10:13:42.924Z,24.6
2016-08-03T10:14:42.466Z,25.66
2016-08-03T10:15:44.419Z,25.53
2016-08-03T10:16:43.325Z,25.84
2016-08-03T10:17:43.266Z,24.81
2016-08-03T10:18:42.569Z,24.85
2016-08-03T10:19:42.711Z,24.28
2016-08-03T10:20:43.111Z,23.87
2016-08-03T10:21:44.471Z,23.84
2016-08-03T10:22:43.071Z,23.08
2016-08-03T10:23:43.521Z,23.47
2016-08-03T10:24:42.611Z,23.58
2016-08-03T10:25:44.718Z,23.68
2016-08-03T10:26:44.760Z,23.15
2016-08-03T10:27:42.161Z,23.05
2016-08-03T10:28:43.691Z,23.28
2016-08-03T10:29:43.354Z,23.46
2016-08-03T10:30:42.797Z,23.28
2016-08-03T10:31:43.702Z,22.87
2016-08-03T10:32:43.047Z,22.99
2016-08-03T10:33:43.071Z,22.48
2016-08-03T10:34:43.707Z,22.8
2016-08-03T10:35:44.011Z,23.23
2016-08-03T10:36:42.875Z,22.7
2016-08-03T10:37:43.537Z,22.66
2016-08-03T10:38:43.534Z,23.03
2016-08-03T10:39:44.799Z,22.54
2016-08-03T10:40:44.829Z,22.22
2016-08-03T10:41:43.272Z,22.29
2016-08-03T10:42:44.055Z,22.3
2016-08-03T10:44:12.186Z,22.66
2016-08-03T10:44:43.412Z,22.43
2016-08-03T10:46:43.862Z,22.93
2016-08-03T10:48:43.425Z,24.17
2016-08-03T10:50:57.268Z,23.32
2016-08-03T10:51:44.314Z,23.24
2016-08-03T10:52:55.096Z,22.84
2016-08-03T10:53:44.419Z,23.46
2016-08-03T10:54:44.438Z,23.92
2016-08-03T10:55:44.812Z,23.96
2016-08-03T10:56:43.992Z,23.37
2016-08-03T10:57:44.612Z,23.15
2016-08-03T10:58:43.816Z,22.87
2016-08-03T10:59:44.511Z,23.59
2016-08-03T11:00:43.681Z,23.25
2016-08-03T11:01:44.748Z,22.88
2016-08-03T11:02:43.940Z,23.08
2016-08-03T11:03:47.231Z,23.05
2016-08-03T11:04:45.576Z,23.09
2016-08-03T11:05:44.649Z,22.63
2016-08-03T11:06:45.415Z,22.75
2016-08-03T11:07:45.454Z,22.76
2016-08-03T11:08:44.239Z,22.6
2016-08-03T11:09:44.460Z,22.69
2016-08-03T11:10:44.014Z,22.9
2016-08-03T11:11:45.092Z,23.03
2016-08-03T11:12:45.540Z,23.08
2016-08-03T11:13:44.403Z,22.7
2016-08-03T11:14:44.241Z,22.9
2016-08-03T11:15:44.284Z,22.78
2016-08-03T11:16:44.597Z,22.59
2016-08-03T11:17:45.521Z,22.59
2016-08-03T11:18:46.706Z,22.78
2016-08-03T11:19:45.929Z,23.08
2016-08-03T11:20:44.852Z,22.93
2016-08-03T11:21:45.254Z,23.03
2016-08-03T11:22:44.629Z,23.28
2016-08-03T11:23:43.796Z,23.25
2016-08-03T11:24:45.940Z,22.84
2016-08-03T11:25:44.320Z,22.8
2016-08-03T11:26:44.877Z,23.17
2016-08-03T11:27:44.991Z,23.25
2016-08-03T11:28:44.792Z,23.31
2016-08-03T11:29:45.171Z,23.39
2016-08-03T11:30:46.483Z,23.31
2016-08-03T11:31:46.145Z,23.27
2016-08-03T11:32:46.525Z,23.44
2016-08-03T11:33:46.419Z,23.02
2016-08-03T11:34:44.922Z,22.43
2016-08-03T11:35:44.921Z,22.76
2016-08-03T11:36:46.005Z,22.75
2016-08-03T11:37:45.305Z,22.76
2016-08-03T11:38:47.624Z,22.69
2016-08-03T11:39:46.288Z,22.73
2016-08-03T11:40:46.021Z,22.54
2016-08-03T11:41:45.937Z,22.26
2016-08-03T11:42:45.366Z,22.45
2016-08-03T11:43:46.349Z,22.69
2016-08-03T11:44:46.143Z,22.63
2016-08-03T11:45:45.019Z,22.53
2016-08-03T11:46:46.472Z,22.85
2016-08-03T11:47:46.699Z,22.6
2016-08-03T11:48:46.009Z,22.59
2016-08-03T11:49:46.603Z,22.98
2016-08-03T11:50:46.749Z,23.17
2016-08-03T11:51:45.965Z,23.32
2016-08-03T11:52:45.173Z,23.34
2016-08-03T11:53:44.894Z,23.56
2016-08-03T11:54:44.975Z,23.65
2016-08-03T11:55:44.890Z,23.81
2016-08-03T11:56:45.521Z,23.87
2016-08-03T11:57:45.150Z,23.59
2016-08-03T11:58:45.897Z,23.54
2016-08-03T11:59:46.794Z,23.5
2016-08-03T12:00:45.396Z,23.47
2016-08-03T12:01:46.158Z,23.58
2016-08-03T12:02:47.516Z,23.47
2016-08-03T12:03:46.478Z,23.58
2016-08-03T12:04:47.397Z,23.73
2016-08-03T12:05:46.812Z,23.76
2016-08-03T12:06:48.137Z,23.59
2016-08-03T12:07:48.828Z,23.56
2016-08-03T12:08:47.631Z,23.87
2016-08-03T12:09:47.310Z,23.91
2016-08-03T12:10:46.940Z,23.47
2016-08-03T12:11:46.597Z,23.58
2016-08-03T12:12:46.907Z,23.34
2016-08-03T12:13:47.527Z,23
2016-08-03T12:14:46.293Z,23.12
2016-08-03T12:15:48.082Z,23.34
2016-08-03T12:16:47.287Z,23.15
2016-08-03T12:17:46.423Z,23.1
2016-08-03T12:18:47.935Z,23
2016-08-03T12:19:47.839Z,23.2
2016-08-03T12:20:47.137Z,23.27
2016-08-03T12:21:48.077Z,23.12
2016-08-03T12:22:47.829Z,23.02
2016-08-03T12:23:47.611Z,23.03
2016-08-03T12:24:46.950Z,23.03
2016-08-03T12:25:46.805Z,23.21
2016-08-03T12:26:46.445Z,23.47
2016-08-03T12:27:47.261Z,23.25
2016-08-03T12:28:47.547Z,23.1
2016-08-03T12:29:47.380Z,23.31
2016-08-03T12:30:47.204Z,23.37
2016-08-03T12:31:47.164Z,23.13
2016-08-03T12:32:47.757Z,23.05
2016-08-03T12:33:48.399Z,23.05
2016-08-03T12:34:47.533Z,22.9
2016-08-03T12:35:47.706Z,22.9
2016-08-03T12:36:47.333Z,22.75
2016-08-03T12:37:47.498Z,22.57
2016-08-03T12:38:48.750Z,22.62
2016-08-03T12:39:47.116Z,22.72
2016-08-03T12:40:47.986Z,22.85
2016-08-03T12:41:47.296Z,22.8
2016-08-03T12:42:47.454Z,22.43
2016-08-03T12:43:47.368Z,22.47
2016-08-03T12:44:48.088Z,22.57
2016-08-03T12:45:47.929Z,22.45
2016-08-03T12:46:47.438Z,22.47
2016-08-03T12:47:46.826Z,22.22
2016-08-03T12:48:47.677Z,22.3
2016-08-03T12:49:48.236Z,22.2
2016-08-03T12:50:48.039Z,22.26
2016-08-03T12:51:47.532Z,22.15
2016-08-03T12:52:49.158Z,22.26
2016-08-03T12:53:49.535Z,22.2
2016-08-03T12:54:48.298Z,22.54
2016-08-03T12:55:49.856Z,22.62
2016-08-03T12:56:48.309Z,22.35
2016-08-03T12:57:48.318Z,22.29
2016-08-03T12:58:48.759Z,22.22
2016-08-03T12:59:49.156Z,22.41
2016-08-03T13:00:47.465Z,22.08
2016-08-03T13:01:49.285Z,22.25
2016-08-03T13:02:48.792Z,22.1
2016-08-03T13:03:48.377Z,22.14
2016-08-03T13:04:50.480Z,21.73
2016-08-03T13:05:47.864Z,21.73
2016-08-03T13:06:47.615Z,21.76
2016-08-03T13:07:47.954Z,21.72
2016-08-03T13:08:49.398Z,21.76
2016-08-03T13:09:48.189Z,21.64
2016-08-03T13:10:48.076Z,21.61
2016-08-03T13:11:48.196Z,21.6
2016-08-03T13:12:47.923Z,21.6
2016-08-03T13:13:50.055Z,21.66
2016-08-03T13:14:48.803Z,21.58
2016-08-03T13:15:49.314Z,21.75
2016-08-03T13:16:51.137Z,21.61
2016-08-03T13:17:48.743Z,21.99
2016-08-03T13:18:48.970Z,22.1
2016-08-03T13:19:50.131Z,21.77
2016-08-03T13:20:48.241Z,21.69
2016-08-03T13:21:49.057Z,21.79